Impacts METAR Board
IDs:

KPDX - Portland Intl Arpt, OR, US

Updated at: 1500 UTC 21 Jul 2018
Potential Impact None Slight Moderate High
Time 21/03Z 21/04Z 21/05Z 21/06Z 21/07Z 21/08Z 21/09Z 21/10Z 21/11Z 21/12Z 21/13Z 21/14Z 21/15Z
Temp75 72 67 64 62 61 59 58 57 57 56 57 59
Dewpt50 46 44 45 46 46 47 48 49 49 49 50 51
Altim30.07 30.09 30.11 30.12 30.12 30.12 30.12 30.12 30.13 30.14 30.15 30.16 30.16
VIS10 10 10 10 10 10 10 10 10 10 10 10 10
CIG-- -- -- -- -- -- -- -- -- -- -- -- --
CoverCLRCLRCLRCLRCLRCLRCLRCLRCLRCLRFEWFEWSCT
FltCatVFRVFRVFRVFRVFRVFRVFRVFRVFRVFRVFRVFRVFR
WX--------------------------
WDir3203103203203203300330035034000
WSpd12 16 12 10 10 8 3 4 3 3 3 4 6
WGst16 -- 19 -- -- -- -- -- -- -- -- -- --
Raw hourly METARs
KPDX 210253Z 32012G16KT 10SM CLR 24/10 A3007 RMK AO2 SLP182 T02390100 55006
KPDX 210353Z 31016KT 10SM CLR 22/08 A3009 RMK AO2 SLP188 T02220078
KPDX 210453Z 32012G19KT 10SM CLR 19/07 A3011 RMK AO2 SLP196 T01940067
KPDX 210553Z 32010KT 10SM CLR 18/07 A3012 RMK AO2 SLP198 T01780072 10261 20178 51016
KPDX 210653Z 32010KT 10SM CLR 17/08 A3012 RMK AO2 SLP198 T01670078
KPDX 210753Z 33008KT 10SM CLR 16/08 A3012 RMK AO2 SLP198 T01610078 402610106
KPDX 210853Z VRB03KT 10SM CLR 15/08 A3012 RMK AO2 SLP198 T01500083 53000
KPDX 210953Z 33004KT 10SM CLR 14/09 A3012 RMK AO2 SLP198 T01440089
KPDX 211053Z VRB03KT 10SM CLR 14/09 A3013 RMK AO2 SLP201 T01390094
KPDX 211153Z 35003KT 10SM CLR 14/09 A3014 RMK AO2 SLP202 T01390094 10178 20133 53005
KPDX 211253Z 34003KT 10SM FEW015 13/09 A3015 RMK AO2 SLP209 T01330094
KPDX 211353Z VRB04KT 10SM FEW010 14/10 A3016 RMK AO2 SLP211 T01390100
KPDX 211453Z VRB06KT 10SM SCT012 15/11 A3016 RMK AO2 SLP213 T01500106 51009



Page loaded:  15:50 UTC  |   08:50 AM Pacific  |   09:50 AM Mountain  |   10:50 AM Central  |   11:50 AM Eastern

 

ADVISORIES

FORECASTS

FORECASTS

OBSERVATIONS

USER TOOLS

ABOUT US